Weather observations for the past three days for
Greene County Regional Airport
Imperial (Metric)
Date Time (edt) Wind (mph) Vis. (mi.) Weather Sky Cond. Temperature (ºF) Relative Humidity Wind Chill (°F) Heat Index (°F) Pressure Precipitation (in)
Air Dwpt 6 hour altimeter (in) sea level (mb) 1 hr 3 hr 6 hr
Max. Min.
31 22:15 Calm 10.00 Fair CLR 77 73.4 89% 78 30.11 0.0
31 21:55 Calm 10.00 Fair CLR 77 73.4 89% 78 30.1 0.0
31 21:35 Calm 10.00 Fair CLR 78.8 73.4 84% 82 30.1 0.0
31 21:15 Calm 10.00 Fair CLR 78.8 71.6 79% 82 30.09 0.0
31 20:55 Calm 10.00 Fair CLR 80.6 73.4 79% 85 30.08 0.0
31 20:35 Calm 10.00 Fair CLR 80.6 73.4 79% 85 30.08 0.0
31 20:15 Calm 10.00 Fair CLR 82.4 73.4 74% 88 30.08 0.0
31 19:35 Calm 10.00 Fair CLR 87.8 71.6 59% 94 30.07 0.0
31 19:15 Calm 10.00 Fair CLR 91.4 69.8 49% 97 30.07 0.0
31 18:55 Vrbl 5 10.00 Fair CLR 91.4 69.8 49% 97 30.08 0.0
31 18:35 E 3 10.00 Fair CLR 93.2 68 44% 98 30.08 0.0
31 18:15 Vrbl 5 10.00 Fair CLR 93.2 66.2 41% 96 30.08 0.0
31 17:55 E 8 10.00 Fair CLR 95 64.4 36% 97 30.08 0.0
31 17:35 E 7 10.00 Fair CLR 93.2 68 44% 98 30.08 0.0
31 17:15 NE 7 10.00 Fair CLR 93.2 66.2 41% 96 30.08 0.0
31 16:55 Vrbl 6 10.00 Fair CLR 93.2 68 44% 98 30.08 0.0
31 16:35 Vrbl 5 10.00 Fair CLR 93.2 69.8 47% 99 30.09 0.0
31 16:15 Vrbl 6 10.00 Fair CLR 93.2 68 44% 98 30.09 0.0
31 15:55 NE 8 10.00 Fair CLR 93.2 69.8 47% 99 30.1 0.0
31 15:35 Vrbl 5 10.00 Fair CLR 93.2 68 44% 98 30.11 0.0
31 15:15 Calm 10.00 Fair CLR 91.4 69.8 49% 97 30.11 0.0
31 14:55 SE 8 10.00 Fair CLR 91.4 69.8 49% 97 30.12 0.0
31 14:35 Vrbl 5 10.00 Fair CLR 91.4 69.8 49% 97 30.13 0.0
31 14:15 Vrbl 5 10.00 A Few Clouds FEW050 91.4 69.8 49% 97 30.14 0.0
31 13:55 N 6 7.00 Fair CLR 89.6 71.6 55% 96 30.14 0.0
31 13:35 Vrbl 3 9.00 A Few Clouds FEW050 FEW060 87.8 71.6 59% 94 30.15 0.0
31 13:15 Calm 10.00 Partly Cloudy SCT041 SCT050 89.6 71.6 55% 96 30.15 0.0
31 12:55 Calm 10.00 Partly Cloudy SCT039 SCT047 SCT055 86 71.6 62% 92 30.16 0.0
31 12:35 Calm 10.00 Partly Cloudy SCT038 SCT045 86 71.6 62% 92 30.17 0.0
31 12:15 Vrbl 6 10.00 Partly Cloudy SCT041 SCT047 86 73.4 66% 93 30.17 0.0
31 11:55 Vrbl 3 10.00 Partly Cloudy FEW030 SCT038 86 73.4 66% 93 30.17 0.0
31 11:35 N 5 7.00 Partly Cloudy SCT028 SCT034 84.2 75.2 74% 92 30.17 0.0
31 11:15 N 6 4.00 Fair with Haze CLR 82.4 75.2 79% 89 30.18 0.0
31 10:55 Calm 10.00 A Few Clouds FEW019 FEW026 FEW031 84.2 75.2 74% 92 30.18 0.0
31 10:35 Calm 8.00 Mostly Cloudy BKN019 BKN026 82.4 77 84% 91 30.17 0.0
31 10:15 Calm 9.00 Partly Cloudy SCT013 82.4 77 84% 91 30.17 0.0
31 09:55 NW 5 4.00 A Few Clouds with Haze FEW012 80.6 77 89% 87 30.17 0.0
31 09:35 Calm 5.00 Fog/Mist CLR 80.6 77 89% 87 30.17 0.0
31 09:15 Calm 6.00 Fog/Mist CLR 78.8 77 94% 83 30.17 0.0
31 08:55 Calm 8.00 Fair CLR 77 75.2 94% 78 30.17 0.0
31 08:35 Calm 9.00 Fair CLR 75.2 75.2 100% 73 30.17 0.0
31 08:15 Calm 8.00 Fair CLR 75.2 73.4 94% 74 30.16 0.0
31 07:55 Calm 9.00 Partly Cloudy SCT050 73.4 73.4 100% 30.16 0.0
31 07:35 Calm 8.00 Mostly Cloudy BKN049 71.6 71.6 100% 30.17 0.0
31 07:15 Calm 8.00 Partly Cloudy SCT049 71.6 71.6 100% 30.16 0.0
31 06:55 Calm 10.00 Overcast SCT030 OVC050 71.6 71.6 100% 30.15 0.0
31 06:35 Calm 10.00 Overcast OVC030 71.6 71.6 100% 30.15 0.0
31 06:15 Calm 10.00 Mostly Cloudy BKN029 BKN044 71.6 71.6 100% 30.15 0.0
31 05:55 Calm 9.00 A Few Clouds FEW032 FEW044 71.6 71.6 100% 30.14 0.0
31 05:35 Calm 10.00 Partly Cloudy SCT031 SCT041 71.6 71.6 100% 30.14 0.0
31 05:15 Calm 10.00 Mostly Cloudy SCT032 BKN040 73.4 73.4 100% 30.14 0.0
31 04:55 Calm 10.00 A Few Clouds FEW040 73.4 73.4 100% 30.14 0.0
31 04:35 Calm 10.00 Fair CLR 73.4 73.4 100% 30.13 0.0
31 04:15 Calm 10.00 Fair CLR 71.6 71.6 100% 30.12 0.0
31 03:55 Calm 10.00 Fair CLR 73.4 73.4 100% 30.13 0.0
31 03:35 Calm 10.00 Partly Cloudy SCT041 73.4 73.4 100% 30.12 0.0
31 03:15 Calm 10.00 Overcast FEW034 OVC042 73.4 73.4 100% 30.12 0.0
31 02:55 Calm 10.00 Mostly Cloudy BKN033 73.4 73.4 100% 30.13 0.0
31 02:35 Calm 10.00 Partly Cloudy SCT036 73.4 73.4 100% 30.13 0.0
31 02:15 Calm 10.00 Partly Cloudy SCT037 75.2 73.4 94% 74 30.13 0.0
31 01:55 Calm 10.00 Fair CLR 75.2 73.4 94% 74 30.13 0.0
31 01:35 Calm 10.00 Fair CLR 75.2 73.4 94% 74 30.13 0.0
31 01:15 Calm 10.00 Fair CLR 73.4 73.4 100% 30.13 0.0
31 00:55 Calm 10.00 Fair CLR 75.2 73.4 94% 74 30.14 0.0
31 00:35 Calm 10.00 Fair CLR 75.2 73.4 94% 74 30.14 0.0
31 00:15 Calm 10.00 Fair CLR 75.2 73.4 94% 74 30.14 0.0
30 23:55 Calm 10.00 Fair CLR 77 73.4 89% 78 30.14 0.0
30 23:35 Calm 10.00 Fair CLR 77 73.4 89% 78 30.14 0.0
30 23:15 Calm 10.00 Fair CLR 77 73.4 89% 78 30.14 0.0
30 22:55 SE 3 10.00 Fair CLR 78.8 73.4 84% 82 30.14 0.0
30 22:35 E 5 10.00 Fair CLR 80.6 73.4 79% 85 30.14 0.0
30 22:15 E 5 10.00 Fair CLR 78.8 75.2 89% 82 30.14 0.0
30 21:55 E 5 10.00 Fair CLR 78.8 75.2 89% 82 30.13 0.0
30 21:35 Calm 10.00 Fair CLR 77 77 100% 78 30.13 0.0
30 21:15 Calm 10.00 Fair CLR 78.8 75.2 89% 82 30.13 0.0
30 20:55 Calm 10.00 Fair CLR 80.6 75.2 84% 86 30.12 0.0
30 20:35 Calm 10.00 A Few Clouds FEW120 78.8 77 94% 83 30.12 0.0
30 20:15 Calm 10.00 Fair CLR 82.4 75.2 79% 89 30.11 0.0
30 19:55 Calm 10.00 Fair CLR 84.2 75.2 74% 92 30.11 0.0
30 19:35 Calm 10.00 Fair CLR 86 75.2 70% 95 30.11 0.0
30 19:15 Calm 10.00 Fair CLR 87.8 73.4 62% 96 30.1 0.0
30 18:55 Calm 10.00 Fair CLR 87.8 73.4 62% 96 30.1 0.0
30 18:35 Vrbl 3 10.00 Fair CLR 89.6 73.4 59% 98 30.1 0.0
30 18:15 Calm 10.00 Fair CLR 89.6 75.2 63% 100 30.1 0.0
30 17:55 SE 6 10.00 A Few Clouds FEW120 89.6 73.4 59% 98 30.1 0.0
30 17:35 Calm 10.00 Mostly Cloudy BKN120 89.6 71.6 55% 96 30.1 0.0
30 17:15 S 5 10.00 Partly Cloudy SCT120 89.6 73.4 59% 98 30.1 0.0
30 16:55 S 5 10.00 Partly Cloudy SCT120 87.8 73.4 62% 96 30.11 0.0
30 16:35 SE 6 10.00 Mostly Cloudy BKN120 86 75.2 70% 95 30.12 0.0
30 16:15 S 6 10.00 Mostly Cloudy BKN120 82.4 75.2 79% 89 30.13 0.0
30 15:55 S 6 10.00 Partly Cloudy SCT110 82.4 75.2 79% 89 30.13 0.0
30 15:35 S 6 G 13 10.00 Mostly Cloudy FEW041 SCT050 BKN110 84.2 75.2 74% 92 30.14 0.0
30 15:15 S 8 10.00 Partly Cloudy SCT041 SCT065 87.8 75.2 66% 98 30.14 0.0
30 14:55 Calm 10.00 Partly Cloudy FEW036 FEW055 SCT065 89.6 73.4 59% 98 30.14 0.0
30 14:35 SE 5 10.00 Mostly Cloudy FEW037 SCT050 BKN070 87.8 73.4 62% 96 30.15 0.0
30 14:15 SE 6 10.00 Partly Cloudy FEW050 SCT075 87.8 73.4 62% 96 30.16 0.0
30 13:55 Calm 10.00 Fair CLR 86 73.4 66% 93 30.17 0.0
30 13:35 SE 5 10.00 A Few Clouds FEW041 FEW065 84.2 73.4 70% 91 30.18 0.0
30 13:15 E 5 10.00 Mostly Cloudy FEW030 SCT042 BKN065 84.2 71.6 66% 90 30.18 0.0
30 12:55 NE 6 10.00 Overcast BKN030 OVC039 84.2 73.4 70% 91 30.19 0.0
30 12:35 Vrbl 6 10.00 Mostly Cloudy BKN027 BKN035 BKN043 86 73.4 66% 93 30.2 0.0
30 12:15 Vrbl 6 10.00 Mostly Cloudy BKN027 BKN034 84.2 75.2 74% 92 30.21 0.0
30 11:55 E 8 10.00 Mostly Cloudy BKN023 BKN029 BKN035 84.2 73.4 70% 91 30.21 0.0
30 11:35 Vrbl 5 10.00 Mostly Cloudy BKN021 BKN030 82.4 75.2 79% 89 30.21 0.0
30 11:15 Vrbl 6 10.00 Mostly Cloudy BKN015 80.6 75.2 84% 86 30.21 0.0
30 10:55 Vrbl 5 10.00 Overcast BKN010 OVC014 78.8 75.2 89% 82 30.22 0.0
30 10:35 NE 6 10.00 Overcast OVC008 78.8 75.2 89% 82 30.22 0.0
30 10:15 NE 5 10.00 Overcast OVC004 77 75.2 94% 78 30.22 0.0
30 09:55 NE 6 6.00 Fog/Mist OVC003 75.2 75.2 100% 73 30.22 0.0
30 09:35 NE 6 2.00 Light Drizzle Fog/Mist OVC003 75.2 75.2 100% 73 30.22 0.0
30 09:15 E 6 3.00 Fog/Mist OVC003 73.4 73.4 100% 30.22 0.0
30 08:55 E 5 0.50 Light Drizzle Fog/Mist OVC003 73.4 73.4 100% 30.21 0.0
30 08:35 NE 5 0.25 Drizzle Fog OVC002 73.4 73.4 100% 30.2 0.0
30 08:15 NE 5 0.15 Fog OVC002 73.4 73.4 100% 30.21 0.0
30 07:55 E 6 0.25 Fog OVC002 73.4 73.4 100% 30.2 0.0
30 07:35 E 5 0.15 Fog OVC002 73.4 73.4 100% 30.2 0.0
30 07:15 E 5 0.15 Fog OVC002 73.4 73.4 100% 30.19 0.0
30 06:55 E 3 0.15 Fog OVC002 71.6 71.6 100% 30.18 0.0
30 06:35 Calm 0.15 Fog OVC002 71.6 71.6 100% 30.16 0.0
30 06:15 NE 6 7.00 Overcast OVC003 71.6 71.6 100% 30.16 0.0
30 05:55 Calm 6.00 Fog/Mist BKN005 71.6 71.6 100% 30.15 0.0
30 05:35 Calm 6.00 Fog/Mist CLR 71.6 71.6 100% 30.15 0.0
30 05:15 Calm 8.00 Fair CLR 71.6 71.6 100% 30.15 0.0
30 04:55 Calm 9.00 A Few Clouds FEW002 73.4 73.4 100% 30.16 0.0
30 04:35 Calm 8.00 Fair CLR 71.6 71.6 100% 30.15 0.0
30 04:15 Calm 10.00 Fair CLR 73.4 73.4 100% 30.15 0.0
30 03:55 Calm 10.00 Fair CLR 73.4 73.4 100% 30.15 0.0
30 03:35 Calm 7.00 Fair CLR 71.6 71.6 100% 30.15 0.0
30 03:15 SE 3 9.00 Fair CLR 73.4 73.4 100% 30.15 0.0
30 02:55 Calm 10.00 Fair CLR 73.4 73.4 100% 30.15 0.0
30 02:35 Calm 10.00 Fair CLR 73.4 73.4 100% 30.15 0.0
30 02:15 Calm 9.00 Fair CLR 73.4 73.4 100% 30.16 0.0
30 01:55 Calm 10.00 Fair CLR 73.4 73.4 100% 30.16 0.0
30 01:35 Calm 10.00 Fair CLR 73.4 73.4 100% 30.17 0.0
30 01:15 Calm 10.00 Fair CLR 75.2 75.2 100% 73 30.17 0.0
30 00:55 Calm 10.00 Fair CLR 75.2 75.2 100% 73 30.18 0.0
30 00:35 Calm 10.00 Fair CLR 75.2 75.2 100% 73 30.18 0.0
30 00:15 Calm 10.00 Fair CLR 75.2 75.2 100% 73 30.18 0.0
29 23:55 Calm 10.00 Fair CLR 75.2 75.2 100% 73 30.18 0.0
29 23:35 Calm 10.00 A Few Clouds FEW043 75.2 75.2 100% 73 30.19 0.0
29 23:15 Calm 10.00 Partly Cloudy SCT043 75.2 75.2 100% 73 30.19 0.0
29 22:55 Calm 10.00 Fair CLR 77 75.2 94% 78 30.19 0.0
29 22:35 Calm 10.00 Fair CLR 77 75.2 94% 78 30.18 0.0
29 22:15 Calm 10.00 Fair CLR 77 75.2 94% 78 30.18 0.0
29 21:55 SE 5 10.00 Fair CLR 77 75.2 94% 78 30.17 0.0
29 21:35 Calm 10.00 Fair CLR 77 75.2 94% 78 30.15 0.0
29 21:15 E 3 10.00 Fair CLR 78.8 75.2 89% 82 30.14 0.0
29 20:55 E 3 10.00 Fair CLR 78.8 75.2 89% 82 30.13 0.0
29 20:35 E 5 10.00 Fair CLR 78.8 75.2 89% 82 30.12 0.0
29 20:15 Calm 10.00 Fair CLR 80.6 75.2 84% 86 30.11 0.0
29 19:55 Calm 2.50 Partly Cloudy with Haze FEW039 FEW045 SCT050 78.8 75.2 89% 82 30.11 0.0
29 19:35 Vrbl 5 10.00 Mostly Cloudy SCT039 BKN045 BKN050 82.4 73.4 74% 88 30.11 0.0
29 19:15 SE 12 10.00 A Few Clouds FEW037 84.2 75.2 74% 92 30.11 0.0
29 18:55 SE 5 10.00 Fair CLR 86 75.2 70% 95 30.1 0.0
29 18:35 Vrbl 5 10.00 Fair CLR 87.8 75.2 66% 98 30.1 0.0
29 18:15 Vrbl 6 10.00 Fair CLR 86 75.2 70% 95 30.1 0.0
29 17:55 SE 6 10.00 Fair CLR 87.8 75.2 66% 98 30.1 0.0
29 17:35 Calm 10.00 Fair CLR 87.8 75.2 66% 98 30.1 0.0
29 17:15 S 3 10.00 Fair CLR 87.8 75.2 66% 98 30.1 0.0
29 16:55 S 6 10.00 Fair CLR 86 73.4 66% 93 30.11 0.0
29 16:35 Vrbl 5 10.00 Fair CLR 87.8 75.2 66% 98 30.11 0.0
29 16:15 S 6 10.00 Fair CLR 87.8 75.2 66% 98 30.12 0.0
29 15:55 SE 8 10.00 Fair CLR 86 75.2 70% 95 30.13 0.0
29 15:35 S 9 10.00 Fair CLR 87.8 75.2 66% 98 30.13 0.0
29 15:15 S 7 10.00 Partly Cloudy FEW036 FEW055 SCT070 87.8 75.2 66% 98 30.14 0.0
29 14:55 E 5 10.00 Partly Cloudy FEW036 SCT055 SCT070 87.8 73.4 62% 96 30.15 0.0
29 14:35 Calm 10.00 Partly Cloudy SCT032 SCT070 87.8 75.2 66% 98 30.16 0.0
29 14:15 Calm 10.00 Overcast OVC032 86 73.4 66% 93 30.16 0.0
29 13:55 Calm 10.00 Mostly Cloudy BKN030 BKN035 BKN040 84.2 73.4 70% 91 30.16 0.0
29 13:35 SE 3 G 13 10.00 Mostly Cloudy SCT026 BKN031 84.2 73.4 70% 91 30.17 0.0
29 13:15 Calm 10.00 Mostly Cloudy BKN025 BKN031 86 75.2 70% 95 30.17 0.0
29 12:55 Vrbl 7 10.00 Mostly Cloudy BKN022 BKN026 82.4 75.2 79% 89 30.17 0.0
29 12:35 E 6 10.00 Partly Cloudy SCT020 82.4 73.4 74% 88 30.18 0.0
29 12:15 Vrbl 5 10.00 Mostly Cloudy SCT014 BKN029 80.6 75.2 84% 86 30.18 0.0
29 11:55 Calm 10.00 Overcast BKN012 OVC029 78.8 73.4 84% 82 30.18 0.0
29 11:35 Vrbl 6 10.00 Mostly Cloudy BKN011 BKN028 77 73.4 89% 78 30.18 0.0
29 11:15 Vrbl 6 10.00 Overcast OVC008 77 73.4 89% 78 30.18 0.0
29 10:55 Vrbl 5 10.00 Overcast OVC007 75.2 73.4 94% 74 30.18 0.0
29 10:35 NE 5 10.00 Overcast OVC006 75.2 73.4 94% 74 30.18 0.0
29 10:15 NE 5 10.00 Overcast OVC005 75.2 73.4 94% 74 30.18 0.0
29 09:55 E 6 9.00 Overcast OVC004 73.4 73.4 100% 30.17 0.0
29 09:35 E 6 4.00 Fog/Mist OVC003 73.4 73.4 100% 30.17 0.0
29 09:15 E 5 0.50 Light Drizzle Fog OVC002 71.6 71.6 100% 30.16 0.0
29 08:55 E 7 0.25 Drizzle Fog OVC002 71.6 71.6 100% 30.17 0.0
29 08:35 NE 3 0.25 Fog OVC002 71.6 71.6 100% 30.17 0.0
29 08:15 Vrbl 3 0.25 Fog OVC002 71.6 71.6 100% 30.16 0.0
29 07:55 NE 5 0.50 Fog/Mist OVC002 71.6 71.6 100% 30.15 0.0
29 07:35 E 5 0.25 Fog OVC002 71.6 71.6 100% 30.14 0.0
29 07:15 NE 6 0.50 Fog/Mist OVC002 71.6 71.6 100% 30.14 0.0
29 06:55 E 5 0.25 Fog OVC002 71.6 71.6 100% 30.13 0.0
29 06:35 NE 5 0.50 Fog OVC002 71.6 71.6 100% 30.13 0.0
29 06:15 N 5 3.00 Fog/Mist OVC002 71.6 71.6 100% 30.12 0.0
29 05:55 Calm 0.75 Fog/Mist OVC002 71.6 71.6 100% 30.11 0.0
29 05:35 SE 3 0.25 Fog OVC002 71.6 71.6 100% 30.11 0.0
29 05:15 E 3 7.00 Overcast SCT002 OVC028 73.4 73.4 100% 30.1 0.0
29 04:55 Calm 9.00 Overcast FEW002 OVC027 73.4 73.4 100% 30.1 0.0
29 04:35 Calm 9.00 Overcast BKN026 BKN037 OVC065 73.4 73.4 100% 30.1 0.0
29 04:15 E 5 10.00 Mostly Cloudy FEW027 SCT033 BKN044 73.4 73.4 100% 30.11 0.0
29 03:55 NE 3 10.00 Overcast SCT027 BKN033 OVC044 73.4 73.4 100% 30.11 0.0
29 03:35 Calm 7.00 Overcast SCT025 BKN029 OVC045 73.4 73.4 100% 30.1 0.0
29 03:15 Calm 10.00 Overcast FEW003 OVC025 73.4 73.4 100% 30.09 0.0
29 02:55 Calm 9.00 Mostly Cloudy SCT002 BKN022 73.4 73.4 100% 30.09 0.0
29 02:35 Calm 9.00 Mostly Cloudy BKN002 73.4 73.4 100% 30.09 0.0
29 02:15 Calm 6.00 Fog/Mist CLR 73.4 73.4 100% 30.09 0.0
29 01:55 Vrbl 5 8.00 Fair CLR 73.4 73.4 100% 30.09 0.0
29 01:35 Calm 7.00 Fair CLR 73.4 73.4 100% 30.1 0.0
29 01:15 S 3 4.00 Fog/Mist FEW002 75.2 75.2 100% 73 30.1 0.0
29 00:55 Calm 4.00 Fog/Mist BKN002 BKN026 75.2 75.2 100% 73 30.11 0.0
29 00:35 Calm 3.00 Fog/Mist SCT003 SCT009 BKN026 75.2 75.2 100% 73 30.11 0.0
29 00:15 Calm 0.50 Fog SCT009 BKN013 OVC034 75.2 75.2 100% 73 30.1 0.0
28 23:55 Calm 0.50 Light Rain Fog/Mist BKN034 75.2 75.2 100% 73 30.1 0.0
28 23:35 NE 6 9.00 Partly Cloudy SCT032 SCT042 77 77 100% 78 30.09 0.0
28 23:15 Calm 8.00 Mostly Cloudy SCT030 BKN037 BKN044 77 77 100% 78 30.08 0.0
28 22:55 Calm 9.00 Mostly Cloudy BKN030 BKN037 77 77 100% 78 30.08 0.0
Date Time (edt) Wind (mph) Vis. (mi.) Weather Sky Cond. Air Dwpt Max. Min. Relative Humidity Wind Chill (°F) Heat Index (°F) altimeter (in) sea level (mb) 1 hr 3 hr 6 hr
6 hour
Temperature (ºF) Pressure Precipitation (in)